Time;durP1;ratioP1;P1;durP2;ratioP2;P2;SDS_P1;SDS_P2;PMS_P1;PMS_P2;Temp;Humidity;BMP_temperature;BMP_pressure;BME280_temperature;BME280_humidity;BME280_pressure;Samples;Min_cycle;Max_cycle;Signal;HPM_P1;HPM_P2
2021/10/19 00:01:18;;;;;;;34.60;21.20;;;12.60;50.90;;;;;;4973875;28;20400;-76
2021/10/19 00:03:43;;;;;;;30.63;19.53;;;12.70;50.60;;;;;;4974418;28;20392;-76
2021/10/19 00:06:10;;;;;;;31.50;20.40;;;12.70;51.40;;;;;;4974832;28;20398;-76
2021/10/19 00:08:35;;;;;;;30.58;20.17;;;12.70;49.20;;;;;;4976539;28;20422;-77
2021/10/19 00:11:01;;;;;;;32.13;21.30;;;12.80;49.40;;;;;;4980199;28;20467;-77
2021/10/19 00:13:27;;;;;;;33.25;20.45;;;12.70;49.60;;;;;;4975630;28;20384;-76
2021/10/19 00:15:52;;;;;;;34.17;19.23;;;12.80;49.70;;;;;;4974316;28;20571;-76
2021/10/19 00:18:18;;;;;;;31.80;19.73;;;12.70;50.10;;;;;;4975299;28;20789;-76
2021/10/19 00:20:43;;;;;;;31.83;20.83;;;12.70;50.20;;;;;;4976231;28;20464;-76
2021/10/19 00:23:09;;;;;;;32.27;20.37;;;12.70;50.10;;;;;;4976059;28;20904;-76
2021/10/19 00:25:35;;;;;;;31.53;20.37;;;12.70;50.10;;;;;;4975693;28;20984;-75
2021/10/19 00:28:00;;;;;;;30.23;20.77;;;12.70;50.40;;;;;;4975378;28;20488;-75
2021/10/19 00:30:26;;;;;;;31.55;21.27;;;12.70;51.30;;;;;;4975291;28;20446;-76
2021/10/19 00:32:51;;;;;;;32.20;19.60;;;12.70;51.20;;;;;;4974581;28;20861;-75
2021/10/19 00:35:17;;;;;;;28.65;19.27;;;12.70;51.30;;;;;;4975778;28;20388;-77
2021/10/19 00:37:43;;;;;;;32.08;21.33;;;12.60;51.60;;;;;;4974890;28;20404;-76
2021/10/19 00:40:09;;;;;;;30.17;20.08;;;12.60;51.90;;;;;;4973967;28;20789;-76
2021/10/19 00:42:36;;;;;;;32.67;20.77;;;12.70;51.80;;;;;;4968598;28;20410;-74
2021/10/19 00:45:03;;;;;;;29.33;20.00;;;12.70;51.40;;;;;;4954711;28;20452;-75
2021/10/19 00:47:29;;;;;;;30.60;20.15;;;12.80;50.50;;;;;;4954370;28;20394;-77
2021/10/19 00:49:55;;;;;;;31.42;19.67;;;12.80;50.00;;;;;;4964861;28;20809;-77
2021/10/19 00:52:21;;;;;;;30.88;20.38;;;12.90;50.90;;;;;;5002915;28;20432;-75
2021/10/19 00:54:47;;;;;;;30.50;19.33;;;12.80;50.40;;;;;;4986364;28;20439;-76
2021/10/19 00:57:13;;;;;;;35.20;19.60;;;12.80;50.70;;;;;;4972835;28;20885;-75
2021/10/19 00:59:46;;;;;;;31.45;19.17;;;12.90;50.80;;;;;;4975440;28;20793;-77
2021/10/19 01:02:16;;;;;;;34.47;20.88;;;12.80;50.60;;;;;;4974814;28;20932;-76
2021/10/19 01:04:42;;;;;;;29.25;19.70;;;12.80;50.90;;;;;;4973659;28;20412;-75
2021/10/19 01:07:09;;;;;;;32.72;20.35;;;12.80;51.40;;;;;;4974084;28;20392;-76
2021/10/19 01:09:37;;;;;;;30.73;19.25;;;12.80;51.50;;;;;;4973933;28;20396;-77
2021/10/19 01:12:07;;;;;;;28.45;19.15;;;12.80;51.30;;;;;;4972588;28;20403;-75
2021/10/19 01:14:33;;;;;;;29.70;19.83;;;12.80;52.10;;;;;;4974129;28;20424;-76
2021/10/19 01:16:58;;;;;;;31.23;19.90;;;12.90;53.10;;;;;;4972144;28;20430;-76
2021/10/19 01:19:25;;;;;;;29.20;19.83;;;12.80;54.00;;;;;;4973376;28;20408;-75
2021/10/19 01:21:58;;;;;;;32.85;19.48;;;12.80;54.30;;;;;;4972520;28;20459;-76
2021/10/19 01:24:24;;;;;;;31.83;20.95;;;12.80;55.30;;;;;;4961293;28;20419;-76
2021/10/19 01:26:50;;;;;;;30.75;20.65;;;12.80;56.90;;;;;;4971980;28;20400;-76
2021/10/19 01:29:16;;;;;;;31.30;20.05;;;12.70;57.40;;;;;;4973184;28;20385;-75
2021/10/19 01:31:47;;;;;;;37.38;21.42;;;12.70;58.00;;;;;;4973023;28;20388;-75
2021/10/19 01:34:14;;;;;;;31.97;21.00;;;12.70;59.00;;;;;;4972503;28;20486;-75
2021/10/19 01:36:39;;;;;;;32.40;20.70;;;12.70;59.40;;;;;;4972675;28;20408;-75
2021/10/19 01:39:06;;;;;;;34.70;20.47;;;12.60;61.00;;;;;;4972234;28;20435;-75
2021/10/19 01:41:32;;;;;;;33.40;21.95;;;12.60;61.40;;;;;;4972615;28;20399;-75
2021/10/19 01:43:58;;;;;;;32.88;21.55;;;12.60;62.10;;;;;;4972525;28;20794;-75
2021/10/19 01:46:23;;;;;;;37.30;22.70;;;12.70;62.40;;;;;;4972698;28;20388;-76
2021/10/19 01:48:49;;;;;;;36.03;22.30;;;12.60;63.20;;;;;;4972590;28;20396;-75
2021/10/19 01:51:15;;;;;;;36.17;23.00;;;12.60;64.60;;;;;;4985274;28;20900;-75
2021/10/19 01:53:41;;;;;;;35.13;22.55;;;12.60;65.10;;;;;;4972345;28;20404;-75
2021/10/19 01:56:07;;;;;;;35.05;22.00;;;12.50;66.30;;;;;;4972773;28;20455;-76
2021/10/19 01:58:32;;;;;;;36.13;22.70;;;12.60;65.00;;;;;;4971930;28;20810;-76
2021/10/19 02:00:58;;;;;;;36.50;22.40;;;12.60;65.10;;;;;;4972477;28;20392;-76
2021/10/19 02:03:24;;;;;;;35.00;22.17;;;12.60;65.60;;;;;;4972020;28;20396;-77
2021/10/19 02:05:49;;;;;;;39.78;23.75;;;12.60;65.30;;;;;;4972329;28;20408;-75
2021/10/19 02:08:15;;;;;;;37.72;23.40;;;12.50;66.90;;;;;;4972573;28;20424;-77
2021/10/19 02:10:41;;;;;;;37.13;23.40;;;12.50;66.80;;;;;;4972505;28;20388;-76
2021/10/19 02:13:08;;;;;;;36.65;23.23;;;12.50;68.40;;;;;;4973082;28;20442;-77
2021/10/19 02:15:34;;;;;;;36.20;23.63;;;12.50;68.60;;;;;;4972859;28;20392;-76
2021/10/19 02:18:02;;;;;;;37.40;23.95;;;12.60;68.20;;;;;;4971816;28;20400;-77
2021/10/19 02:20:28;;;;;;;38.63;23.77;;;12.50;68.60;;;;;;4972562;28;20774;-77
2021/10/19 02:22:54;;;;;;;36.97;23.90;;;12.50;69.90;;;;;;4972479;28;20403;-76
2021/10/19 02:25:20;;;;;;;38.50;23.70;;;12.50;70.60;;;;;;4972520;28;20874;-77
2021/10/19 02:27:46;;;;;;;38.47;24.48;;;12.50;71.40;;;;;;4972590;28;20435;-77
2021/10/19 02:30:13;;;;;;;34.17;22.00;;;12.40;72.50;;;;;;4972485;28;20399;-77
2021/10/19 02:32:39;;;;;;;37.28;23.88;;;12.40;73.60;;;;;;4972192;28;20400;-76
2021/10/19 02:35:12;;;;;;;37.38;24.17;;;12.40;74.00;;;;;;4972200;28;20408;-76
2021/10/19 02:37:39;;;;;;;40.28;23.23;;;12.40;74.30;;;;;;4972755;28;20711;-75
2021/10/19 02:40:07;;;;;;;35.80;23.98;;;12.40;75.90;;;;;;4972225;28;20415;-77
2021/10/19 02:42:32;;;;;;;37.20;23.55;;;12.40;74.90;;;;;;4971845;28;20404;-77
2021/10/19 02:45:02;;;;;;;36.35;23.85;;;12.40;76.70;;;;;;4971302;28;20412;-76
2021/10/19 02:47:28;;;;;;;38.83;24.90;;;12.40;77.50;;;;;;4971907;28;20889;-76
2021/10/19 02:49:54;;;;;;;39.30;25.00;;;12.30;79.40;;;;;;4976489;28;20490;-76
2021/10/19 02:52:20;;;;;;;39.97;25.52;;;12.30;80.10;;;;;;4991370;28;20477;-76
2021/10/19 02:54:45;;;;;;;39.38;25.38;;;12.20;82.10;;;;;;4995515;28;20489;-77
2021/10/19 02:57:11;;;;;;;37.00;24.27;;;12.30;82.10;;;;;;4997300;28;20398;-77
2021/10/19 02:59:37;;;;;;;40.73;25.80;;;12.20;82.80;;;;;;4978824;28;20897;-75
2021/10/19 03:02:03;;;;;;;42.20;26.63;;;12.20;83.20;;;;;;4973878;28;20400;-77
2021/10/19 03:04:28;;;;;;;37.30;25.03;;;12.20;84.40;;;;;;4974107;28;20478;-77
2021/10/19 03:06:54;;;;;;;38.57;25.17;;;12.20;85.00;;;;;;4975327;28;20950;-77
2021/10/19 03:09:19;;;;;;;42.08;25.83;;;12.20;85.40;;;;;;4976149;28;20471;-77
2021/10/19 03:11:45;;;;;;;44.60;26.73;;;12.20;85.30;;;;;;4985624;28;20391;-76
2021/10/19 03:14:11;;;;;;;40.20;26.10;;;12.20;85.70;;;;;;4994613;28;20408;-76
2021/10/19 03:16:37;;;;;;;42.83;26.45;;;12.10;86.70;;;;;;4986548;28;21062;-77
2021/10/19 03:19:03;;;;;;;44.60;26.60;;;12.20;86.70;;;;;;4962166;29;20401;-77
2021/10/19 03:21:29;;;;;;;40.33;26.98;;;12.20;87.50;;;;;;4970970;28;20398;-76
2021/10/19 03:23:54;;;;;;;44.28;27.48;;;12.20;88.00;;;;;;4973675;29;20489;-76
2021/10/19 03:26:20;;;;;;;45.35;27.25;;;12.20;88.70;;;;;;4972995;29;20409;-75
2021/10/19 03:28:46;;;;;;;39.45;25.92;;;12.20;89.80;;;;;;4988893;28;20403;-76
2021/10/19 03:31:12;;;;;;;44.45;27.33;;;12.20;89.50;;;;;;4995340;28;20431;-75
2021/10/19 03:33:38;;;;;;;38.83;25.95;;;12.20;90.50;;;;;;4988869;28;20446;-77
2021/10/19 03:36:05;;;;;;;43.83;27.80;;;12.20;90.70;;;;;;4979083;28;20394;-79
2021/10/19 03:38:32;;;;;;;44.63;27.47;;;12.10;91.10;;;;;;4980238;28;20396;-79
2021/10/19 03:40:57;;;;;;;42.15;27.00;;;12.20;91.50;;;;;;4979604;28;20384;-78
2021/10/19 03:43:23;;;;;;;49.80;26.95;;;12.20;93.00;;;;;;4970195;28;20425;-79
2021/10/19 03:45:48;;;;;;;42.13;27.90;;;12.20;93.70;;;;;;4962585;28;20406;-79
2021/10/19 03:48:14;;;;;;;45.55;27.35;;;12.20;94.80;;;;;;4962977;28;20458;-77
2021/10/19 03:50:40;;;;;;;43.08;26.73;;;12.20;94.90;;;;;;4982866;28;20894;-78
2021/10/19 03:53:08;;;;;;;44.93;27.40;;;12.20;95.10;;;;;;4999912;28;20390;-77
2021/10/19 03:55:33;;;;;;;47.13;27.75;;;12.20;96.20;;;;;;5010938;28;20434;-77
2021/10/19 03:57:59;;;;;;;40.30;26.20;;;12.20;97.10;;;;;;4989392;28;20579;-77
2021/10/19 04:00:25;;;;;;;48.60;27.88;;;12.20;97.30;;;;;;4977357;28;20429;-78
2021/10/19 04:02:50;;;;;;;46.45;26.38;;;12.20;98.80;;;;;;4977672;28;20395;-79
2021/10/19 04:05:16;;;;;;;50.15;28.35;;;12.10;99.90;;;;;;4978198;28;20408;-79
2021/10/19 04:07:44;;;;;;;47.75;28.65;;;12.20;99.90;;;;;;4979460;28;20771;-78
2021/10/19 04:10:10;;;;;;;45.67;28.07;;;12.10;99.90;;;;;;4977460;28;20713;-78
2021/10/19 04:12:36;;;;;;;48.38;28.55;;;12.10;99.90;;;;;;4978405;28;20396;-78
2021/10/19 04:15:02;;;;;;;48.72;28.67;;;12.10;99.90;;;;;;4978815;28;20407;-78
2021/10/19 04:17:27;;;;;;;47.53;29.48;;;12.20;99.90;;;;;;4978873;28;20388;-78
2021/10/19 04:19:53;;;;;;;47.30;28.38;;;12.20;99.90;;;;;;4979348;28;20547;-78
2021/10/19 04:22:22;;;;;;;47.33;29.20;;;12.20;99.90;;;;;;4990268;28;20463;-77
2021/10/19 04:24:48;;;;;;;48.08;28.80;;;12.20;99.90;;;;;;5005493;28;20436;-76
2021/10/19 04:27:13;;;;;;;47.15;28.67;;;12.20;99.90;;;;;;5004663;28;20465;-76
2021/10/19 04:29:39;;;;;;;45.57;28.60;;;12.20;99.90;;;;;;4992634;28;20400;-75
2021/10/19 04:32:05;;;;;;;48.03;28.67;;;12.30;99.90;;;;;;4977749;28;20758;-77
2021/10/19 04:34:31;;;;;;;48.07;28.00;;;12.30;99.90;;;;;;4977695;28;20436;-77
2021/10/19 04:36:56;;;;;;;46.83;29.47;;;12.30;99.90;;;;;;4992375;28;20400;-77
2021/10/19 04:39:22;;;;;;;48.67;28.43;;;12.30;99.90;;;;;;4993041;28;20404;-76
2021/10/19 04:41:47;;;;;;;43.23;27.60;;;12.30;99.90;;;;;;4991346;28;20388;-77
2021/10/19 04:44:13;;;;;;;45.17;27.92;;;12.40;99.90;;;;;;4979287;28;20503;-77
2021/10/19 04:46:40;;;;;;;46.25;30.25;;;12.40;99.90;;;;;;4978654;28;20388;-78
2021/10/19 04:49:06;;;;;;;48.73;29.20;;;12.30;99.90;;;;;;4977229;28;21068;-78
2021/10/19 04:51:32;;;;;;;47.70;28.10;;;12.40;99.90;;;;;;4995480;28;20394;-78
2021/10/19 04:53:58;;;;;;;47.03;27.63;;;12.30;99.90;;;;;;4979008;28;20472;-78
2021/10/19 04:56:23;;;;;;;52.85;28.00;;;12.40;99.90;;;;;;4978808;28;20404;-77
2021/10/19 04:58:49;;;;;;;43.60;27.60;;;12.50;99.90;;;;;;4979151;28;20380;-78
2021/10/19 05:01:15;;;;;;;46.05;28.10;;;12.60;99.90;;;;;;4980704;28;20400;-78
2021/10/19 05:03:46;;;;;;;48.03;28.42;;;12.50;99.90;;;;;;4978969;28;20439;-78
2021/10/19 05:06:12;;;;;;;44.53;27.93;;;12.50;99.90;;;;;;4977850;28;20422;-77
2021/10/19 05:08:38;;;;;;;43.70;27.70;;;12.50;99.90;;;;;;4977984;28;20400;-79
2021/10/19 05:11:03;;;;;;;44.17;28.30;;;12.60;99.90;;;;;;5009160;28;20415;-77
2021/10/19 05:13:29;;;;;;;44.88;28.95;;;12.60;99.90;;;;;;4977823;28;20451;-79
2021/10/19 05:15:55;;;;;;;44.20;28.38;;;12.60;99.90;;;;;;4984562;28;20392;-76
2021/10/19 05:18:20;;;;;;;48.78;29.30;;;12.60;99.90;;;;;;5023370;28;20394;-77
2021/10/19 05:20:46;;;;;;;44.05;28.30;;;12.70;99.90;;;;;;4990548;28;20422;-77
2021/10/19 05:23:11;;;;;;;46.53;29.43;;;12.60;99.90;;;;;;5006782;28;20406;-76
2021/10/19 05:25:37;;;;;;;48.63;29.13;;;12.70;99.90;;;;;;4993741;28;20404;-76
2021/10/19 05:28:02;;;;;;;47.70;29.67;;;12.70;99.90;;;;;;4992599;28;20458;-78
2021/10/19 05:30:28;;;;;;;49.83;29.93;;;12.70;99.90;;;;;;4982249;28;20406;-77
2021/10/19 05:32:54;;;;;;;48.00;31.00;;;12.60;99.90;;;;;;4978285;28;20422;-75
2021/10/19 05:35:19;;;;;;;46.25;29.98;;;12.70;99.90;;;;;;4974827;28;20396;-75
2021/10/19 05:37:45;;;;;;;42.67;28.13;;;12.70;99.90;;;;;;5004294;28;20403;-77
2021/10/19 05:40:11;;;;;;;49.00;29.80;;;12.70;99.90;;;;;;4976512;28;20499;-76
2021/10/19 05:42:37;;;;;;;46.20;29.50;;;12.70;99.90;;;;;;4970162;28;20483;-76
2021/10/19 05:45:04;;;;;;;44.37;28.97;;;12.70;99.90;;;;;;4973223;28;20404;-76
2021/10/19 05:47:30;;;;;;;47.53;30.73;;;12.70;99.90;;;;;;4973686;28;20491;-75
2021/10/19 05:49:55;;;;;;;51.15;30.80;;;12.70;99.90;;;;;;4973125;28;20520;-76
2021/10/19 05:52:21;;;;;;;48.58;30.40;;;12.80;99.90;;;;;;4970048;28;20988;-77
2021/10/19 05:54:47;;;;;;;51.40;30.98;;;12.80;99.90;;;;;;4974298;28;20408;-78
2021/10/19 05:57:12;;;;;;;50.22;30.55;;;12.80;99.90;;;;;;4974702;28;20404;-78
2021/10/19 05:59:38;;;;;;;56.37;31.83;;;12.80;99.90;;;;;;4977482;28;20396;-75
2021/10/19 06:02:03;;;;;;;52.70;30.80;;;12.70;99.90;;;;;;4975621;28;20392;-77
2021/10/19 06:04:29;;;;;;;95.37;57.30;;;12.80;99.90;;;;;;4973804;28;20416;-76
2021/10/19 06:06:57;;;;;;;108.93;65.70;;;12.80;99.90;;;;;;4989080;28;20507;-77
2021/10/19 06:09:24;;;;;;;108.80;66.65;;;12.90;99.90;;;;;;4975582;28;20404;-77
2021/10/19 06:11:50;;;;;;;48.88;31.55;;;12.90;99.90;;;;;;4977138;28;20419;-78
2021/10/19 06:14:16;;;;;;;51.83;30.90;;;12.90;99.90;;;;;;4971170;28;20805;-77
2021/10/19 06:16:42;;;;;;;53.75;31.55;;;12.80;99.90;;;;;;4958121;28;20447;-78
2021/10/19 06:19:08;;;;;;;49.17;29.70;;;12.80;99.90;;;;;;4971712;28;20467;-77
2021/10/19 06:21:33;;;;;;;49.10;30.43;;;12.80;99.90;;;;;;4977277;28;20412;-78
2021/10/19 06:23:59;;;;;;;49.10;30.00;;;12.90;99.90;;;;;;4993545;28;20450;-76
2021/10/19 06:26:24;;;;;;;53.40;30.97;;;12.90;99.90;;;;;;4976684;28;20907;-78
2021/10/19 06:28:50;;;;;;;50.77;31.17;;;12.90;99.90;;;;;;4974401;28;20762;-76
2021/10/19 06:31:15;;;;;;;53.17;31.30;;;12.90;99.90;;;;;;4967925;28;20400;-77
2021/10/19 06:33:41;;;;;;;49.72;31.15;;;12.90;99.90;;;;;;4978076;28;20489;-78
2021/10/19 06:36:06;;;;;;;47.87;29.23;;;12.90;99.90;;;;;;4985147;28;20404;-79
2021/10/19 06:38:32;;;;;;;51.57;29.87;;;12.90;99.90;;;;;;4976544;28;20462;-78
2021/10/19 06:40:58;;;;;;;46.97;29.00;;;12.90;99.90;;;;;;4977798;28;20434;-76
2021/10/19 06:43:23;;;;;;;47.53;30.20;;;12.90;99.90;;;;;;4974199;28;20395;-74
2021/10/19 06:45:49;;;;;;;45.70;28.83;;;12.90;99.90;;;;;;4972472;28;20497;-77
2021/10/19 06:48:15;;;;;;;49.13;28.87;;;13.00;99.90;;;;;;4971387;28;20876;-76
2021/10/19 06:50:40;;;;;;;45.60;28.45;;;13.10;99.90;;;;;;5008938;28;20435;-79
2021/10/19 06:53:08;;;;;;;44.65;29.38;;;13.10;99.90;;;;;;4981967;28;20404;-77
2021/10/19 06:55:34;;;;;;;48.17;29.80;;;13.10;99.90;;;;;;4977470;28;20512;-75
2021/10/19 06:58:01;;;;;;;47.92;29.33;;;13.10;99.90;;;;;;4998566;28;20420;-73
2021/10/19 07:00:26;;;;;;;44.53;27.85;;;13.10;99.90;;;;;;4992980;28;20428;-75
2021/10/19 07:02:52;;;;;;;47.20;28.92;;;13.10;99.90;;;;;;4975328;28;20432;-74
2021/10/19 07:05:29;;;;;;;49.47;28.58;;;13.10;99.90;;;;;;4973601;28;20431;-75
2021/10/19 07:07:54;;;;;;;46.30;28.60;;;13.10;99.90;;;;;;4976840;28;20497;-78
2021/10/19 07:10:20;;;;;;;46.50;28.45;;;13.20;99.90;;;;;;4981617;28;20456;-77
2021/10/19 07:12:47;;;;;;;46.38;28.70;;;13.20;99.90;;;;;;4976223;28;20761;-78
2021/10/19 07:15:14;;;;;;;40.55;26.67;;;13.30;99.90;;;;;;4975887;28;20420;-79
2021/10/19 07:17:40;;;;;;;43.97;27.23;;;13.20;99.90;;;;;;4976685;28;20423;-79
2021/10/19 07:20:08;;;;;;;45.93;27.40;;;13.30;99.90;;;;;;4979922;28;20408;-78
2021/10/19 07:22:35;;;;;;;42.17;27.17;;;13.30;99.90;;;;;;4972482;28;20431;-79
2021/10/19 07:25:01;;;;;;;42.17;26.55;;;13.40;99.90;;;;;;4967644;28;20446;-78
2021/10/19 07:27:27;;;;;;;44.33;26.83;;;13.40;99.90;;;;;;4977415;28;20435;-77
2021/10/19 07:29:53;;;;;;;42.60;25.65;;;13.40;99.90;;;;;;4985577;28;20405;-77
2021/10/19 07:32:18;;;;;;;39.23;24.27;;;13.40;99.90;;;;;;4978890;28;20407;-78
2021/10/19 07:34:44;;;;;;;41.00;23.93;;;13.40;99.90;;;;;;4985139;28;20403;-78
2021/10/19 07:37:10;;;;;;;39.73;23.90;;;13.40;99.90;;;;;;4983658;28;20410;-77
2021/10/19 07:39:35;;;;;;;40.20;23.50;;;13.40;99.90;;;;;;4990971;28;20403;-76
2021/10/19 07:42:01;;;;;;;36.43;23.07;;;13.40;99.90;;;;;;4978755;28;20643;-77
2021/10/19 07:44:26;;;;;;;35.72;23.30;;;13.50;99.90;;;;;;4978625;28;20526;-79
2021/10/19 07:46:52;;;;;;;34.20;22.73;;;13.50;99.90;;;;;;4977715;28;20452;-78
2021/10/19 07:49:21;;;;;;;40.05;24.63;;;13.40;99.90;;;;;;4976891;28;20380;-79
2021/10/19 07:51:47;;;;;;;35.65;21.80;;;13.60;99.90;;;;;;4977492;28;20643;-79
2021/10/19 07:54:13;;;;;;;37.65;22.40;;;13.50;99.90;;;;;;4978887;28;20404;-79
2021/10/19 07:56:39;;;;;;;36.10;22.10;;;13.50;99.90;;;;;;4977058;28;20467;-76
2021/10/19 07:59:05;;;;;;;33.30;21.20;;;13.50;99.90;;;;;;4992113;28;20404;-76
2021/10/19 08:01:33;;;;;;;30.50;20.60;;;13.60;99.90;;;;;;4995967;28;20395;-76
2021/10/19 08:03:58;;;;;;;32.00;21.00;;;13.50;99.90;;;;;;4999339;28;20412;-76
2021/10/19 08:06:24;;;;;;;30.20;20.13;;;13.50;99.90;;;;;;4974725;28;20873;-76
2021/10/19 08:08:50;;;;;;;33.20;20.08;;;13.60;99.90;;;;;;4974847;28;20396;-76
2021/10/19 08:11:15;;;;;;;32.33;18.65;;;13.70;99.90;;;;;;4974353;28;20396;-76
2021/10/19 08:13:41;;;;;;;27.63;19.00;;;13.80;99.90;;;;;;4984468;28;20407;-76
2021/10/19 08:16:06;;;;;;;28.60;20.13;;;13.80;99.90;;;;;;5009523;28;20404;-76
2021/10/19 08:18:32;;;;;;;33.53;21.87;;;13.70;99.90;;;;;;4991445;28;20780;-76
2021/10/19 08:20:58;;;;;;;31.75;19.80;;;13.70;99.90;;;;;;4986055;28;20831;-76
2021/10/19 08:23:23;;;;;;;33.67;19.20;;;13.70;99.90;;;;;;4979634;28;20414;-75
2021/10/19 08:25:49;;;;;;;29.08;18.75;;;13.80;99.90;;;;;;4986089;28;20427;-77
2021/10/19 08:28:23;;;;;;;27.98;18.75;;;13.80;99.90;;;;;;4975194;28;20399;-75
2021/10/19 08:30:50;;;;;;;24.17;16.38;;;13.80;99.90;;;;;;4978087;28;20442;-76
2021/10/19 08:33:17;;;;;;;25.98;17.27;;;13.80;99.90;;;;;;4979282;28;20731;-77
2021/10/19 08:35:42;;;;;;;29.55;18.80;;;13.90;99.90;;;;;;4976075;28;20407;-74
2021/10/19 08:38:10;;;;;;;29.35;17.55;;;13.90;99.90;;;;;;4976557;28;20542;-76
2021/10/19 08:40:36;;;;;;;26.38;17.50;;;14.00;99.90;;;;;;4975367;28;20863;-77
2021/10/19 08:43:02;;;;;;;24.85;17.45;;;13.90;99.90;;;;;;4975115;28;20511;-78
2021/10/19 08:45:30;;;;;;;24.00;16.33;;;14.00;99.90;;;;;;4976970;28;20452;-78
2021/10/19 08:47:56;;;;;;;25.20;17.13;;;14.10;99.90;;;;;;4977285;28;20404;-79
2021/10/19 08:50:24;;;;;;;24.48;16.92;;;14.10;99.90;;;;;;4975407;28;20735;-78
2021/10/19 08:52:50;;;;;;;25.10;16.30;;;14.10;99.90;;;;;;4976110;28;20396;-77
2021/10/19 08:55:17;;;;;;;23.25;16.13;;;14.20;99.90;;;;;;4990996;28;20412;-79
2021/10/19 08:57:43;;;;;;;20.73;15.60;;;14.30;99.90;;;;;;4985220;28;20394;-76
2021/10/19 09:00:10;;;;;;;21.10;14.73;;;14.30;99.90;;;;;;4996270;28;20390;-77
2021/10/19 09:02:36;;;;;;;19.75;15.00;;;14.30;99.90;;;;;;4996189;28;20383;-77
2021/10/19 09:05:07;;;;;;;21.47;15.47;;;14.30;99.90;;;;;;4979942;28;20419;-78
2021/10/19 09:07:33;;;;;;;21.77;14.60;;;14.30;99.90;;;;;;5007682;28;20396;-77
2021/10/19 09:09:58;;;;;;;24.40;15.57;;;14.30;99.90;;;;;;4978047;28;20396;-77
2021/10/19 09:12:24;;;;;;;19.67;15.10;;;14.30;99.90;;;;;;4975392;28;20392;-78
2021/10/19 09:14:50;;;;;;;19.45;14.40;;;14.30;99.90;;;;;;4976239;28;20396;-78
2021/10/19 09:17:16;;;;;;;20.95;15.40;;;14.30;99.90;;;;;;4975187;28;20396;-76
2021/10/19 09:19:44;;;;;;;17.58;14.18;;;14.40;99.90;;;;;;4976475;28;20532;-78
2021/10/19 09:22:11;;;;;;;19.50;14.13;;;14.40;99.90;;;;;;4973817;28;20400;-78
2021/10/19 09:24:39;;;;;;;19.58;14.70;;;14.50;99.90;;;;;;4975067;28;20837;-78
2021/10/19 09:27:15;;;;;;;21.20;14.50;;;14.50;99.90;;;;;;4976313;28;20885;-78
2021/10/19 09:29:49;;;;;;;20.88;13.60;;;14.60;99.90;;;;;;4974099;28;20407;-78
2021/10/19 09:32:16;;;;;;;20.98;14.20;;;14.70;99.90;;;;;;4974226;28;20384;-78
2021/10/19 09:34:45;;;;;;;17.95;13.55;;;14.70;99.90;;;;;;4969430;28;20412;-77
2021/10/19 09:37:19;;;;;;;19.85;13.30;;;14.80;99.90;;;;;;4973732;28;20945;-78
2021/10/19 09:39:50;;;;;;;18.58;13.40;;;14.80;99.90;;;;;;4975221;28;20491;-77
2021/10/19 09:42:22;;;;;;;16.65;12.63;;;14.90;99.90;;;;;;4973458;28;20755;-79
2021/10/19 09:44:58;;;;;;;16.08;11.70;;;14.90;99.90;;;;;;4975252;28;20777;-79
2021/10/19 09:47:36;;;;;;;17.80;12.63;;;14.90;99.90;;;;;;4976607;28;20388;-79
2021/10/19 09:50:03;;;;;;;15.50;12.20;;;15.00;99.90;;;;;;4976274;28;20397;-78
2021/10/19 09:52:29;;;;;;;18.67;12.60;;;15.10;99.90;;;;;;4977822;28;20426;-79
2021/10/19 09:54:55;;;;;;;16.37;12.70;;;15.00;99.90;;;;;;4976388;28;20591;-77
2021/10/19 09:57:21;;;;;;;16.33;12.87;;;15.00;99.90;;;;;;4983211;28;20441;-78
2021/10/19 09:59:47;;;;;;;18.53;12.50;;;15.00;99.90;;;;;;4995698;28;20497;-78
2021/10/19 10:02:16;;;;;;;22.65;13.20;;;15.10;99.90;;;;;;5001396;28;20450;-77
2021/10/19 10:04:42;;;;;;;18.20;13.15;;;15.00;99.90;;;;;;4969381;28;20506;-77
2021/10/19 10:07:11;;;;;;;18.13;12.73;;;15.00;99.90;;;;;;4970893;28;20392;-76
2021/10/19 10:09:38;;;;;;;16.17;13.50;;;15.00;99.90;;;;;;4981911;28;20389;-77
2021/10/19 10:12:07;;;;;;;18.45;13.75;;;15.00;99.90;;;;;;4980717;28;20487;-77
2021/10/19 10:14:45;;;;;;;18.05;13.35;;;15.00;99.90;;;;;;4974055;28;20395;-77
2021/10/19 10:17:12;;;;;;;16.85;13.75;;;15.00;99.90;;;;;;4974148;28;20388;-78
2021/10/19 10:19:39;;;;;;;17.45;13.32;;;15.10;99.90;;;;;;4973672;28;20491;-78
2021/10/19 10:22:15;;;;;;;16.35;13.25;;;15.20;99.90;;;;;;4975608;28;20412;-77
2021/10/19 10:24:42;;;;;;;15.50;12.27;;;15.30;99.90;;;;;;4974235;28;20830;-78
2021/10/19 10:27:25;;;;;;;16.10;11.90;;;15.40;99.90;;;;;;5007524;28;20458;-77
2021/10/19 10:29:51;;;;;;;14.73;11.48;;;15.50;99.90;;;;;;4976305;28;20396;-78
2021/10/19 10:32:23;;;;;;;13.77;11.57;;;15.50;98.80;;;;;;4977383;28;20420;-80
2021/10/19 10:35:05;;;;;;;15.27;11.40;;;15.50;99.20;;;;;;4973607;28;20782;-75
2021/10/19 10:37:38;;;;;;;12.63;10.65;;;15.50;99.90;;;;;;4973112;28;20822;-77
2021/10/19 10:40:10;;;;;;;14.27;10.82;;;15.60;97.80;;;;;;4971877;28;20419;-75
2021/10/19 10:42:37;;;;;;;12.35;10.05;;;15.50;99.10;;;;;;4970432;28;20414;-75
2021/10/19 10:45:24;;;;;;;12.57;10.68;;;15.50;98.90;;;;;;4968838;28;20431;-75
2021/10/19 10:48:02;;;;;;;13.02;10.88;;;15.60;98.80;;;;;;4969885;28;20413;-76
2021/10/19 10:50:28;;;;;;;13.70;10.75;;;15.50;99.50;;;;;;4969970;28;20402;-76
2021/10/19 10:53:05;;;;;;;13.93;11.25;;;15.40;99.90;;;;;;4971413;28;20923;-76
2021/10/19 10:55:39;;;;;;;12.95;11.32;;;15.40;99.90;;;;;;4970876;28;20416;-75
2021/10/19 10:58:05;;;;;;;13.38;11.30;;;15.40;99.90;;;;;;4973780;28;20482;-75
2021/10/19 11:00:31;;;;;;;16.83;12.98;;;15.40;99.90;;;;;;4971401;28;20463;-75
2021/10/19 11:03:14;;;;;;;14.13;12.60;;;15.40;99.90;;;;;;4971169;28;20490;-77
2021/10/19 11:06:06;;;;;;;13.48;11.95;;;15.40;99.90;;;;;;4952507;28;20418;-76
2021/10/19 11:08:34;;;;;;;18.35;12.50;;;15.40;99.90;;;;;;4957560;28;20419;-77
2021/10/19 11:11:19;;;;;;;13.40;11.82;;;15.40;99.90;;;;;;4972163;28;20450;-76
2021/10/19 11:13:59;;;;;;;13.65;12.02;;;15.40;99.90;;;;;;4957607;28;20392;-75
2021/10/19 11:16:43;;;;;;;14.63;12.40;;;15.60;99.90;;;;;;4971951;28;20388;-76
2021/10/19 11:19:21;;;;;;;13.95;12.45;;;15.70;99.90;;;;;;4971720;28;20798;-75
2021/10/19 11:21:52;;;;;;;14.38;12.77;;;15.70;99.90;;;;;;4970966;28;20400;-75
2021/10/19 11:24:18;;;;;;;15.27;12.20;;;15.80;99.90;;;;;;4971788;28;20439;-76
2021/10/19 11:26:45;;;;;;;14.70;12.70;;;15.90;99.90;;;;;;4971459;28;20400;-75
2021/10/19 11:29:11;;;;;;;15.95;12.13;;;15.90;99.90;;;;;;4974709;28;20475;-77
2021/10/19 11:31:38;;;;;;;14.45;12.20;;;15.80;99.90;;;;;;4976356;28;20389;-76
2021/10/19 11:34:05;;;;;;;14.95;12.77;;;15.80;99.90;;;;;;4974871;28;20400;-76
2021/10/19 11:36:30;;;;;;;13.85;11.23;;;15.90;99.90;;;;;;4978559;28;20402;-76
2021/10/19 11:39:00;;;;;;;13.43;11.70;;;16.00;99.90;;;;;;4975416;28;20868;-76
2021/10/19 11:41:28;;;;;;;13.63;11.20;;;16.00;99.90;;;;;;4974718;28;20453;-77
2021/10/19 11:43:56;;;;;;;16.35;11.73;;;16.10;99.80;;;;;;4974148;28;20407;-77
2021/10/19 11:46:24;;;;;;;14.73;11.50;;;16.20;98.10;;;;;;4974797;28;20423;-77
2021/10/19 11:48:52;;;;;;;16.30;12.40;;;16.20;99.30;;;;;;4973055;28;20402;-76
2021/10/19 11:51:20;;;;;;;16.60;12.45;;;16.30;99.10;;;;;;4975171;28;20516;-75
2021/10/19 11:53:47;;;;;;;15.82;13.18;;;16.30;98.40;;;;;;4974516;28;20400;-76
2021/10/19 11:56:15;;;;;;;15.52;13.52;;;16.40;97.60;;;;;;4975090;28;20761;-77
2021/10/19 11:58:52;;;;;;;20.30;13.80;;;16.40;96.80;;;;;;4995034;28;20427;-77
2021/10/19 12:01:19;;;;;;;15.77;12.90;;;16.40;94.90;;;;;;4977464;28;20870;-76
2021/10/19 12:03:57;;;;;;;21.38;13.90;;;16.40;95.70;;;;;;4977990;28;20404;-76
2021/10/19 12:06:25;;;;;;;14.63;11.82;;;16.40;96.30;;;;;;4977888;28;20478;-76
2021/10/19 12:08:50;;;;;;;14.35;11.52;;;16.40;96.40;;;;;;4976330;28;20385;-77
2021/10/19 12:11:16;;;;;;;17.10;11.77;;;16.40;95.90;;;;;;4973987;28;20404;-77
2021/10/19 12:13:53;;;;;;;21.50;12.77;;;16.40;96.60;;;;;;4988913;28;20411;-75
2021/10/19 12:16:23;;;;;;;12.80;11.27;;;16.40;97.40;;;;;;4973594;28;20783;-76
2021/10/19 12:18:48;;;;;;;19.35;10.45;;;16.30;97.30;;;;;;4973892;28;20995;-75
2021/10/19 12:21:15;;;;;;;12.30;11.00;;;16.30;98.30;;;;;;4974468;28;20412;-75
2021/10/19 12:24:02;;;;;;;18.90;10.87;;;16.40;97.40;;;;;;4973683;28;20869;-75
2021/10/19 12:26:30;;;;;;;14.55;10.63;;;16.40;96.90;;;;;;4988150;28;20486;-75